Time;durP1;ratioP1;P1;durP2;ratioP2;P2;SDS_P1;SDS_P2;PMS_P1;PMS_P2;Temp;Humidity;BMP_temperature;BMP_pressure;BME280_temperature;BME280_humidity;BME280_pressure;Samples;Min_cycle;Max_cycle;Signal;HPM_P1;HPM_P2
2023/09/23 00:00:53;;;;;;;8.02;2.85;;;;;;;;;;4978389;28;20426;-58
2023/09/23 00:03:23;;;;;;;4.88;2.83;;;;;;;;;;4970042;28;20062;-57
2023/09/23 00:05:52;;;;;;;59.83;5.57;;;;;;;;;;4978972;28;20235;-63
2023/09/23 00:08:27;;;;;;;35.70;5.35;;;;;;;;;;4979667;28;20062;-63
2023/09/23 00:10:54;;;;;;;11.23;4.72;;;;;;;;;;4977791;28;20534;-63
2023/09/23 00:13:29;;;;;;;11.38;4.55;;;;;;;;;;4984623;28;20534;-63
2023/09/23 00:16:16;;;;;;;9.50;3.33;;;;;;;;;;4981038;28;20059;-62
2023/09/23 00:19:10;;;;;;;8.75;3.58;;;;;;;;;;4976034;28;20047;-63
2023/09/23 00:22:12;;;;;;;12.90;4.50;;;;;;;;;;4961223;28;20495;-63
2023/09/23 00:25:13;;;;;;;17.27;4.85;;;;;;;;;;4960552;28;20058;-63
2023/09/23 00:27:55;;;;;;;9.30;3.40;;;;;;;;;;4965186;28;20058;-59
2023/09/23 00:30:50;;;;;;;10.45;4.15;;;;;;;;;;4953474;28;20055;-59
2023/09/23 00:33:44;;;;;;;7.97;3.55;;;;;;;;;;4953557;28;20050;-58
2023/09/23 00:36:37;;;;;;;6.57;2.95;;;;;;;;;;4964526;28;20050;-59
2023/09/23 00:39:35;;;;;;;7.13;3.35;;;;;;;;;;4956132;28;20133;-59
2023/09/23 00:42:21;;;;;;;8.25;3.00;;;;;;;;;;4965574;28;20671;-51
2023/09/23 00:45:17;;;;;;;9.32;3.30;;;;;;;;;;4961618;28;20141;-62
2023/09/23 00:48:08;;;;;;;7.85;3.30;;;;;;;;;;4959073;28;20055;-63
2023/09/23 00:50:57;;;;;;;13.65;4.50;;;;;;;;;;4961519;28;20484;-62
2023/09/23 00:53:46;;;;;;;8.15;3.63;;;;;;;;;;4961635;28;20059;-63
2023/09/23 00:56:23;;;;;;;13.65;3.63;;;;;;;;;;4961592;28;20059;-63
2023/09/23 00:59:08;;;;;;;11.43;4.00;;;;;;;;;;4961034;28;20055;-63
2023/09/23 01:02:05;;;;;;;7.95;3.70;;;;;;;;;;4959806;28;20528;-57
2023/09/23 01:04:55;;;;;;;8.52;4.07;;;;;;;;;;4963624;28;20111;-49
2023/09/23 01:07:48;;;;;;;17.20;5.78;;;;;;;;;;4965034;28;20047;-45
2023/09/23 01:10:34;;;;;;;16.20;5.07;;;;;;;;;;4962247;28;20554;-47
2023/09/23 01:13:30;;;;;;;19.02;6.85;;;;;;;;;;4960684;28;20511;-46
2023/09/23 01:16:17;;;;;;;10.60;3.13;;;;;;;;;;4962060;28;20054;-45
2023/09/23 01:19:26;;;;;;;18.40;5.18;;;;;;;;;;4965755;28;20764;-46
2023/09/23 01:22:23;;;;;;;13.57;5.43;;;;;;;;;;4981062;28;20054;-51
2023/09/23 01:25:19;;;;;;;18.00;6.55;;;;;;;;;;4982408;28;20050;-47
2023/09/23 01:28:13;;;;;;;7.85;4.40;;;;;;;;;;4982278;28;20065;-45
2023/09/23 01:31:07;;;;;;;11.23;3.80;;;;;;;;;;4978113;28;20046;-45
2023/09/23 01:33:55;;;;;;;10.82;4.45;;;;;;;;;;4978921;28;22213;-49
2023/09/23 01:36:48;;;;;;;15.23;4.57;;;;;;;;;;4980070;28;20608;-59
2023/09/23 01:39:39;;;;;;;16.33;4.20;;;;;;;;;;4982175;28;20061;-60
2023/09/23 01:42:30;;;;;;;6.97;3.53;;;;;;;;;;4973839;28;20062;-60
2023/09/23 01:45:19;;;;;;;18.38;3.47;;;;;;;;;;4981840;28;20062;-61
2023/09/23 01:48:13;;;;;;;18.45;3.70;;;;;;;;;;4979366;28;20059;-60
2023/09/23 01:51:00;;;;;;;13.27;4.15;;;;;;;;;;4978581;28;20054;-61
2023/09/23 01:53:55;;;;;;;16.10;3.30;;;;;;;;;;4982919;28;21001;-60
2023/09/23 01:56:41;;;;;;;10.13;3.05;;;;;;;;;;4982643;28;20062;-59
2023/09/23 01:59:35;;;;;;;15.65;4.47;;;;;;;;;;4977783;28;20081;-59
2023/09/23 02:02:22;;;;;;;13.75;4.22;;;;;;;;;;4977346;28;20050;-59
2023/09/23 02:05:18;;;;;;;17.08;5.15;;;;;;;;;;4980125;28;20082;-60
2023/09/23 02:08:04;;;;;;;13.57;4.57;;;;;;;;;;4979950;28;20110;-59
2023/09/23 02:10:58;;;;;;;20.67;5.88;;;;;;;;;;4980686;28;20062;-59
2023/09/23 02:13:47;;;;;;;16.98;6.80;;;;;;;;;;4981189;28;20046;-59
2023/09/23 02:16:42;;;;;;;15.43;5.88;;;;;;;;;;4972072;28;20576;-59
2023/09/23 02:19:42;;;;;;;11.73;4.90;;;;;;;;;;4977539;28;20392;-60
2023/09/23 02:22:36;;;;;;;17.17;4.88;;;;;;;;;;4973676;28;20140;-59
2023/09/23 02:25:26;;;;;;;14.63;6.80;;;;;;;;;;4966368;28;20276;-60
2023/09/23 02:28:20;;;;;;;23.95;7.97;;;;;;;;;;4976762;28;20396;-61
2023/09/23 02:31:16;;;;;;;17.52;7.35;;;;;;;;;;4971889;28;20141;-48
2023/09/23 02:34:10;;;;;;;28.10;9.15;;;;;;;;;;4965394;28;20057;-63
2023/09/23 02:36:56;;;;;;;32.33;9.82;;;;;;;;;;4976485;28;20062;-59
2023/09/23 02:39:50;;;;;;;29.65;10.38;;;;;;;;;;4978165;28;20051;-59
2023/09/23 02:42:38;;;;;;;27.60;10.65;;;;;;;;;;4969645;28;20057;-59
2023/09/23 02:45:33;;;;;;;25.48;11.18;;;;;;;;;;4968170;28;20054;-59
2023/09/23 02:48:19;;;;;;;31.20;12.32;;;;;;;;;;4944799;28;20073;-59
2023/09/23 02:51:13;;;;;;;37.53;14.05;;;;;;;;;;4975929;28;20058;-52
2023/09/23 02:54:01;;;;;;;31.00;13.13;;;;;;;;;;4980252;28;20058;-60
2023/09/23 02:56:54;;;;;;;31.08;13.50;;;;;;;;;;4982467;28;20413;-61
2023/09/23 02:59:42;;;;;;;41.15;15.13;;;;;;;;;;4984287;28;20050;-60
2023/09/23 03:02:38;;;;;;;37.35;13.25;;;;;;;;;;4979487;28;20055;-60
2023/09/23 03:05:28;;;;;;;52.85;16.05;;;;;;;;;;4977201;28;20062;-61
2023/09/23 03:08:02;;;;;;;60.42;18.90;;;;;;;;;;4977709;28;20060;-63
2023/09/23 03:10:52;;;;;;;55.65;17.70;;;;;;;;;;4976890;28;20206;-48
2023/09/23 03:13:43;;;;;;;41.60;15.27;;;;;;;;;;4974115;28;20057;-59
2023/09/23 03:16:31;;;;;;;40.58;14.85;;;;;;;;;;4975521;28;20062;-59
2023/09/23 03:19:34;;;;;;;57.75;15.30;;;;;;;;;;4975953;28;20756;-59
2023/09/23 03:22:21;;;;;;;69.78;19.20;;;;;;;;;;4978810;28;20057;-59
2023/09/23 03:25:20;;;;;;;135.27;19.65;;;;;;;;;;4979391;28;20081;-59
2023/09/23 03:28:02;;;;;;;125.65;22.90;;;;;;;;;;4975136;28;20129;-58
2023/09/23 03:31:00;;;;;;;213.77;26.27;;;;;;;;;;4979957;28;20097;-63
2023/09/23 03:33:47;;;;;;;285.13;29.75;;;;;;;;;;4977063;28;20061;-63
2023/09/23 03:36:44;;;;;;;321.50;30.52;;;;;;;;;;4982613;28;20081;-63
2023/09/23 03:39:40;;;;;;;189.00;25.00;;;;;;;;;;4978349;28;20168;-62
2023/09/23 03:42:26;;;;;;;260.38;24.60;;;;;;;;;;4983723;28;20066;-63
2023/09/23 03:45:19;;;;;;;249.57;24.63;;;;;;;;;;4984715;28;20059;-63
2023/09/23 03:48:06;;;;;;;241.63;25.20;;;;;;;;;;4980587;28;20067;-49
2023/09/23 03:51:04;;;;;;;394.40;34.58;;;;;;;;;;4979522;28;20089;-53
2023/09/23 03:53:51;;;;;;;326.27;31.63;;;;;;;;;;4985043;28;20054;-51
2023/09/23 03:56:44;;;;;;;136.02;23.48;;;;;;;;;;4980066;28;20554;-50
2023/09/23 03:59:31;;;;;;;170.15;26.30;;;;;;;;;;4980609;28;20054;-46
2023/09/23 04:02:25;;;;;;;59.80;17.55;;;;;;;;;;4977753;28;20074;-49
2023/09/23 04:05:14;;;;;;;67.57;17.85;;;;;;;;;;4982999;28;20062;-49
2023/09/23 04:08:06;;;;;;;29.45;11.52;;;;;;;;;;4981514;28;20106;-60
2023/09/23 04:11:07;;;;;;;63.33;17.45;;;;;;;;;;4983193;28;20529;-59
2023/09/23 04:13:54;;;;;;;34.50;11.82;;;;;;;;;;4980747;28;20062;-60
2023/09/23 04:16:48;;;;;;;36.30;14.32;;;;;;;;;;4977363;28;20054;-60
2023/09/23 04:19:55;;;;;;;35.90;13.82;;;;;;;;;;4981937;28;20188;-60
2023/09/23 04:22:49;;;;;;;32.85;11.95;;;;;;;;;;4986279;28;20141;-47
2023/09/23 04:25:44;;;;;;;30.13;12.02;;;;;;;;;;4987054;28;20061;-60
2023/09/23 04:28:31;;;;;;;30.77;13.15;;;;;;;;;;4986643;28;20065;-61
2023/09/23 04:31:25;;;;;;;28.63;10.93;;;;;;;;;;4984676;28;20050;-61
2023/09/23 04:34:13;;;;;;;30.17;9.75;;;;;;;;;;4986371;28;20087;-61
2023/09/23 04:37:06;;;;;;;30.08;11.55;;;;;;;;;;4983133;28;20057;-61
2023/09/23 04:39:54;;;;;;;29.52;10.63;;;;;;;;;;4984593;28;20065;-60
2023/09/23 04:42:48;;;;;;;30.83;10.15;;;;;;;;;;4988486;28;20261;-59
2023/09/23 04:45:42;;;;;;;34.15;11.10;;;;;;;;;;4985719;28;20049;-60
2023/09/23 04:48:36;;;;;;;37.10;11.18;;;;;;;;;;4985925;28;20046;-60
2023/09/23 04:51:30;;;;;;;28.80;9.77;;;;;;;;;;4983301;28;20090;-49
2023/09/23 04:53:57;;;;;;;17.55;7.20;;;;;;;;;;4986408;28;20058;-63
2023/09/23 04:56:25;;;;;;;30.65;11.05;;;;;;;;;;4984708;28;20062;-63
2023/09/23 04:58:59;;;;;;;27.38;10.57;;;;;;;;;;4980825;28;20145;-64
2023/09/23 05:01:46;;;;;;;21.42;9.35;;;;;;;;;;4983046;28;20446;-63
2023/09/23 05:04:40;;;;;;;20.38;7.60;;;;;;;;;;4973124;28;20046;-63
2023/09/23 05:07:28;;;;;;;26.02;10.40;;;;;;;;;;4983809;28;20076;-63
2023/09/23 05:10:23;;;;;;;20.67;7.82;;;;;;;;;;4979398;28;20254;-64
2023/09/23 05:13:09;;;;;;;18.55;7.85;;;;;;;;;;4979423;28;20502;-62
2023/09/23 05:16:03;;;;;;;24.35;9.60;;;;;;;;;;4976163;28;20070;-62
2023/09/23 05:18:56;;;;;;;20.58;8.68;;;;;;;;;;4977193;28;20046;-62
2023/09/23 05:21:57;;;;;;;23.52;8.13;;;;;;;;;;4975250;28;20062;-62
2023/09/23 05:24:47;;;;;;;20.92;8.70;;;;;;;;;;4980812;28;20065;-64
2023/09/23 05:27:39;;;;;;;28.33;10.05;;;;;;;;;;4979072;28;20054;-63
2023/09/23 05:30:26;;;;;;;25.33;8.88;;;;;;;;;;4982465;28;20575;-60
2023/09/23 05:33:19;;;;;;;27.60;9.60;;;;;;;;;;4980238;28;20510;-60
2023/09/23 05:36:07;;;;;;;24.92;10.52;;;;;;;;;;4983913;28;20518;-60
2023/09/23 05:39:00;;;;;;;22.83;8.32;;;;;;;;;;4983007;28;20078;-60
2023/09/23 05:41:47;;;;;;;18.70;8.02;;;;;;;;;;4980567;28;20572;-60
2023/09/23 05:44:42;;;;;;;21.17;8.88;;;;;;;;;;4982545;28;20064;-60
2023/09/23 05:47:28;;;;;;;22.45;9.70;;;;;;;;;;4975234;28;20050;-62
2023/09/23 05:50:23;;;;;;;15.85;7.93;;;;;;;;;;4978253;28;20117;-62
2023/09/23 05:53:10;;;;;;;20.20;8.75;;;;;;;;;;4979071;28;20050;-60
2023/09/23 05:56:04;;;;;;;16.58;7.95;;;;;;;;;;4980188;28;21277;-59
2023/09/23 05:58:51;;;;;;;26.25;9.65;;;;;;;;;;4979007;28;20136;-60
2023/09/23 06:01:47;;;;;;;12.38;5.85;;;;;;;;;;4976554;28;20066;-59
2023/09/23 06:04:34;;;;;;;19.58;7.22;;;;;;;;;;4976910;28;20169;-59
2023/09/23 06:07:29;;;;;;;22.60;8.98;;;;;;;;;;4981944;28;20137;-58
2023/09/23 06:10:18;;;;;;;14.32;6.75;;;;;;;;;;4978585;28;20065;-59
2023/09/23 06:13:10;;;;;;;14.90;5.88;;;;;;;;;;4978507;28;20062;-59
2023/09/23 06:16:04;;;;;;;17.33;7.53;;;;;;;;;;4973850;28;20054;-60
2023/09/23 06:19:04;;;;;;;15.00;6.93;;;;;;;;;;4972721;28;20629;-59
2023/09/23 06:21:58;;;;;;;14.50;5.90;;;;;;;;;;4959449;28;20082;-57
2023/09/23 06:24:51;;;;;;;14.75;6.90;;;;;;;;;;4960882;28;20456;-48
2023/09/23 06:27:38;;;;;;;18.27;8.55;;;;;;;;;;4958725;28;20094;-60
2023/09/23 06:30:32;;;;;;;24.80;9.10;;;;;;;;;;4947584;28;20062;-60
2023/09/23 06:33:20;;;;;;;19.55;9.02;;;;;;;;;;4963303;28;20050;-59
2023/09/23 06:36:14;;;;;;;16.33;8.98;;;;;;;;;;4956602;28;20174;-59
2023/09/23 06:39:08;;;;;;;17.50;8.07;;;;;;;;;;4941264;28;20121;-60
2023/09/23 06:41:42;;;;;;;11.68;8.80;;;;;;;;;;4956186;28;20114;-63
2023/09/23 06:44:09;;;;;;;23.05;8.30;;;;;;;;;;4948956;28;20066;-62
2023/09/23 06:46:37;;;;;;;10.82;5.95;;;;;;;;;;4957467;28;20051;-62
2023/09/23 06:49:11;;;;;;;12.00;7.18;;;;;;;;;;4928878;28;20538;-62
2023/09/23 06:51:58;;;;;;;17.67;6.90;;;;;;;;;;4952023;28;21230;-62
2023/09/23 06:54:52;;;;;;;9.43;5.75;;;;;;;;;;4945389;28;20676;-62
2023/09/23 06:57:39;;;;;;;12.50;6.82;;;;;;;;;;4945466;28;20071;-62
2023/09/23 07:00:34;;;;;;;15.05;7.03;;;;;;;;;;4951495;28;20153;-63
2023/09/23 07:03:20;;;;;;;11.32;5.57;;;;;;;;;;4955773;28;20059;-63
2023/09/23 07:06:14;;;;;;;14.55;6.78;;;;;;;;;;4961948;28;20113;-60
2023/09/23 07:09:08;;;;;;;13.82;5.47;;;;;;;;;;4951116;28;20074;-63
2023/09/23 07:11:55;;;;;;;18.42;5.88;;;;;;;;;;4960816;28;20054;-64
2023/09/23 07:14:49;;;;;;;14.98;4.85;;;;;;;;;;4965613;28;20056;-63
2023/09/23 07:17:31;;;;;;;16.45;4.75;;;;;;;;;;4960815;28;20483;-62
2023/09/23 07:20:39;;;;;;;11.88;4.00;;;;;;;;;;4966272;28;20062;-47
2023/09/23 07:23:26;;;;;;;10.13;4.47;;;;;;;;;;4975042;28;20050;-48
2023/09/23 07:26:20;;;;;;;9.90;4.53;;;;;;;;;;4979337;28;20530;-49
2023/09/23 07:29:08;;;;;;;7.85;4.22;;;;;;;;;;4980647;28;20058;-49
2023/09/23 07:32:01;;;;;;;9.82;3.92;;;;;;;;;;4980838;28;20421;-49
2023/09/23 07:34:48;;;;;;;15.68;3.90;;;;;;;;;;4982705;28;20517;-52
2023/09/23 07:37:42;;;;;;;8.60;3.47;;;;;;;;;;4977559;28;20061;-61
2023/09/23 07:40:30;;;;;;;13.05;3.45;;;;;;;;;;4980871;28;20081;-48
2023/09/23 07:43:24;;;;;;;8.48;3.08;;;;;;;;;;4984234;28;20060;-51
2023/09/23 07:46:12;;;;;;;7.22;2.72;;;;;;;;;;4980246;28;20066;-46
2023/09/23 07:49:06;;;;;;;8.98;3.63;;;;;;;;;;4981968;28;20046;-50
2023/09/23 07:51:56;;;;;;;8.13;2.72;;;;;;;;;;4980277;28;20077;-48
2023/09/23 07:54:47;;;;;;;5.45;2.72;;;;;;;;;;4982722;28;20062;-60
2023/09/23 07:57:34;;;;;;;6.82;2.78;;;;;;;;;;4978671;28;20161;-60
2023/09/23 08:00:28;;;;;;;6.57;2.30;;;;;;;;;;4987425;28;20081;-60
2023/09/23 08:03:15;;;;;;;4.93;2.42;;;;;;;;;;4983419;28;20058;-60
2023/09/23 08:06:09;;;;;;;7.03;3.17;;;;;;;;;;4981627;28;21399;-60
2023/09/23 08:09:05;;;;;;;8.57;1.83;;;;;;;;;;4977713;28;20057;-60
2023/09/23 08:11:59;;;;;;;6.53;2.33;;;;;;;;;;4978282;28;20726;-60
2023/09/23 08:14:53;;;;;;;6.68;2.20;;;;;;;;;;4969965;28;24314;-63
2023/09/23 08:17:47;;;;;;;7.75;1.90;;;;;;;;;;4974952;28;20081;-51
2023/09/23 08:20:41;;;;;;;6.28;2.05;;;;;;;;;;4977507;28;20060;-51
2023/09/23 08:23:35;;;;;;;8.98;2.22;;;;;;;;;;4970078;28;20054;-52
2023/09/23 08:26:22;;;;;;;13.75;2.40;;;;;;;;;;4970496;28;20121;-49
2023/09/23 08:29:16;;;;;;;7.45;2.80;;;;;;;;;;4985247;28;20050;-54
2023/09/23 08:32:03;;;;;;;10.38;2.72;;;;;;;;;;4973037;28;20142;-49
2023/09/23 08:34:57;;;;;;;12.85;3.50;;;;;;;;;;4980888;28;20066;-62
2023/09/23 08:37:48;;;;;;;9.35;3.03;;;;;;;;;;4986244;28;20062;-62
2023/09/23 08:40:43;;;;;;;4.93;2.42;;;;;;;;;;4986953;28;20810;-62
2023/09/23 08:43:39;;;;;;;;;;;;;;;;;;4982329;28;20145;-62
2023/09/23 08:46:33;;;;;;;6.38;2.50;;;;;;;;;;4985831;28;20568;-62
2023/09/23 08:49:24;;;;;;;12.00;2.40;;;;;;;;;;4985230;28;20054;-63
2023/09/23 08:52:19;;;;;;;9.38;2.80;;;;;;;;;;4980682;28;20431;-61
2023/09/23 08:55:07;;;;;;;8.10;3.03;;;;;;;;;;4981771;28;20046;-62
2023/09/23 08:58:04;;;;;;;7.50;2.95;;;;;;;;;;4983117;28;20054;-62
2023/09/23 09:00:47;;;;;;;4.47;2.30;;;;;;;;;;4979982;28;20065;-63
2023/09/23 09:03:28;;;;;;;3.67;2.10;;;;;;;;;;4984764;28;20058;-62
2023/09/23 09:06:29;;;;;;;8.07;2.38;;;;;;;;;;4980037;28;20514;-61
2023/09/23 09:09:23;;;;;;;4.68;2.22;;;;;;;;;;4986752;28;20050;-61
2023/09/23 09:12:10;;;;;;;5.30;2.15;;;;;;;;;;4983807;28;20053;-61
2023/09/23 09:15:03;;;;;;;6.60;2.05;;;;;;;;;;4984549;28;20096;-60
2023/09/23 09:17:51;;;;;;;4.63;2.25;;;;;;;;;;4980220;28;20064;-61
2023/09/23 09:20:51;;;;;;;8.73;2.40;;;;;;;;;;4983535;28;20537;-60
2023/09/23 09:23:38;;;;;;;6.68;2.50;;;;;;;;;;4987301;28;20066;-60
2023/09/23 09:26:32;;;;;;;5.75;2.58;;;;;;;;;;4988121;28;20078;-58
2023/09/23 09:29:20;;;;;;;6.38;2.50;;;;;;;;;;4980196;28;20050;-61
2023/09/23 09:32:23;;;;;;;3.17;2.40;;;;;;;;;;4986614;28;20103;-62
2023/09/23 09:35:14;;;;;;;4.68;2.40;;;;;;;;;;4985106;28;20057;-62
2023/09/23 09:38:11;;;;;;;6.55;2.88;;;;;;;;;;4985290;28;20754;-61
2023/09/23 09:41:02;;;;;;;4.75;2.88;;;;;;;;;;4980842;28;20078;-61
2023/09/23 09:44:00;;;;;;;7.88;3.20;;;;;;;;;;4980012;28;20065;-60
2023/09/23 09:46:48;;;;;;;6.38;2.90;;;;;;;;;;4979763;28;20058;-59
2023/09/23 09:49:41;;;;;;;5.30;2.67;;;;;;;;;;4985257;28;20081;-49
2023/09/23 09:52:28;;;;;;;5.45;2.47;;;;;;;;;;4979648;28;20050;-49
2023/09/23 09:55:02;;;;;;;4.47;2.35;;;;;;;;;;4983233;28;20058;-47
2023/09/23 09:57:50;;;;;;;5.07;2.53;;;;;;;;;;4975380;28;20061;-46
2023/09/23 10:00:42;;;;;;;5.72;2.47;;;;;;;;;;4980427;28;20049;-46
2023/09/23 10:03:11;;;;;;;5.82;2.45;;;;;;;;;;4978847;28;20132;-63
2023/09/23 10:05:49;;;;;;;9.00;2.63;;;;;;;;;;4977196;28;20050;-59
2023/09/23 10:08:24;;;;;;;6.05;2.47;;;;;;;;;;4979416;28;20058;-59
2023/09/23 10:11:02;;;;;;;8.23;3.78;;;;;;;;;;4983326;28;20058;-59
2023/09/23 10:13:47;;;;;;;6.40;2.72;;;;;;;;;;4981368;28;20066;-59
2023/09/23 10:16:40;;;;;;;6.55;2.92;;;;;;;;;;4977158;28;20077;-59
2023/09/23 10:19:34;;;;;;;4.95;2.78;;;;;;;;;;4975606;28;20201;-59
2023/09/23 10:22:35;;;;;;;4.05;2.50;;;;;;;;;;4978904;28;20569;-61
2023/09/23 10:25:22;;;;;;;3.95;2.40;;;;;;;;;;4974070;28;20053;-63
2023/09/23 10:28:21;;;;;;;3.65;2.05;;;;;;;;;;4977201;28;20057;-63
2023/09/23 10:31:07;;;;;;;6.32;1.95;;;;;;;;;;4970220;28;20112;-64
2023/09/23 10:34:06;;;;;;;3.90;2.05;;;;;;;;;;4978695;28;20050;-63
2023/09/23 10:37:02;;;;;;;5.95;2.17;;;;;;;;;;4980105;28;20057;-63
2023/09/23 10:40:00;;;;;;;5.57;2.00;;;;;;;;;;4979328;28;20051;-63
2023/09/23 10:42:47;;;;;;;6.20;2.00;;;;;;;;;;4976473;28;20070;-62
2023/09/23 10:45:41;;;;;;;3.30;2.10;;;;;;;;;;4978626;28;20055;-61
2023/09/23 10:48:16;;;;;;;3.15;2.10;;;;;;;;;;4976695;28;20463;-60
2023/09/23 10:50:51;;;;;;;6.60;2.10;;;;;;;;;;4973114;28;20809;-62
2023/09/23 10:53:21;;;;;;;3.60;2.10;;;;;;;;;;4971178;28;20050;-62
2023/09/23 10:56:12;;;;;;;3.72;2.05;;;;;;;;;;4977737;28;20058;-62
2023/09/23 10:59:06;;;;;;;3.88;1.90;;;;;;;;;;4977556;28;20151;-61
2023/09/23 11:01:57;;;;;;;3.25;1.90;;;;;;;;;;4978289;28;20341;-63
2023/09/23 11:04:50;;;;;;;3.97;2.03;;;;;;;;;;4984700;28;20449;-63
2023/09/23 11:07:39;;;;;;;3.78;2.00;;;;;;;;;;4978069;28;20050;-62
2023/09/23 11:10:34;;;;;;;5.18;1.85;;;;;;;;;;4982112;28;20604;-62
2023/09/23 11:13:21;;;;;;;3.97;1.83;;;;;;;;;;4976515;28;20050;-65
2023/09/23 11:16:14;;;;;;;4.38;1.63;;;;;;;;;;4981987;28;20073;-61
2023/09/23 11:19:08;;;;;;;3.80;1.83;;;;;;;;;;4983369;28;20058;-61
2023/09/23 11:22:08;;;;;;;2.28;1.70;;;;;;;;;;4985389;28;20081;-63
2023/09/23 11:24:56;;;;;;;2.70;1.52;;;;;;;;;;4983620;28;20425;-63
2023/09/23 11:27:51;;;;;;;3.90;1.55;;;;;;;;;;4980397;28;20069;-63
2023/09/23 11:30:38;;;;;;;6.10;1.80;;;;;;;;;;4978990;28;20055;-64
2023/09/23 11:33:32;;;;;;;3.15;1.60;;;;;;;;;;4979208;28;20518;-63
2023/09/23 11:36:19;;;;;;;5.65;1.88;;;;;;;;;;4984860;28;20678;-58
2023/09/23 11:39:13;;;;;;;2.10;1.38;;;;;;;;;;4983026;28;20046;-51
2023/09/23 11:42:00;;;;;;;1.92;1.40;;;;;;;;;;4981156;28;20577;-47
2023/09/23 11:44:54;;;;;;;3.75;1.40;;;;;;;;;;4983440;28;20061;-49
2023/09/23 11:47:49;;;;;;;2.05;1.52;;;;;;;;;;4983506;28;20062;-52
2023/09/23 11:50:36;;;;;;;1.98;1.50;;;;;;;;;;4978458;28;20060;-49
2023/09/23 11:53:30;;;;;;;5.40;1.83;;;;;;;;;;4984377;28;20062;-58
2023/09/23 11:56:17;;;;;;;3.25;1.30;;;;;;;;;;4977889;28;20186;-61
2023/09/23 11:59:10;;;;;;;6.75;1.60;;;;;;;;;;4979896;28;20054;-61
2023/09/23 12:01:57;;;;;;;4.45;1.77;;;;;;;;;;4983066;28;20515;-62
2023/09/23 12:04:52;;;;;;;2.80;1.25;;;;;;;;;;4985589;28;20680;-61
2023/09/23 12:07:39;;;;;;;3.22;1.67;;;;;;;;;;4978193;28;20057;-61
2023/09/23 12:10:33;;;;;;;2.17;1.45;;;;;;;;;;4980124;28;20077;-61
2023/09/23 12:13:24;;;;;;;2.92;1.40;;;;;;;;;;4980110;28;20054;-48
2023/09/23 12:16:14;;;;;;;2.63;1.25;;;;;;;;;;4978773;28;20050;-63
2023/09/23 12:19:01;;;;;;;4.03;1.40;;;;;;;;;;4975361;28;20189;-63
2023/09/23 12:22:16;;;;;;;3.13;1.27;;;;;;;;;;4973626;28;20888;-63
2023/09/23 12:25:10;;;;;;;2.58;1.50;;;;;;;;;;4976497;28;20056;-64
2023/09/23 12:28:04;;;;;;;2.33;1.10;;;;;;;;;;4980124;28;20419;-64
2023/09/23 12:30:51;;;;;;;2.40;1.10;;;;;;;;;;4977819;28;20062;-49
2023/09/23 12:33:45;;;;;;;4.40;1.45;;;;;;;;;;4974208;28;20050;-54
2023/09/23 12:36:32;;;;;;;4.75;1.35;;;;;;;;;;4957200;28;20743;-53
2023/09/23 12:39:26;;;;;;;3.78;1.25;;;;;;;;;;4958197;28;20192;-52
2023/09/23 12:42:14;;;;;;;10.45;1.50;;;;;;;;;;4974380;28;20054;-50
2023/09/23 12:45:07;;;;;;;3.55;1.42;;;;;;;;;;4980333;28;20054;-51
2023/09/23 12:47:49;;;;;;;2.85;1.73;;;;;;;;;;4970161;28;20066;-51
2023/09/23 12:50:44;;;;;;;3.42;1.40;;;;;;;;;;4975351;28;20131;-58
2023/09/23 12:53:31;;;;;;;3.30;1.20;;;;;;;;;;4984592;28;20057;-48
2023/09/23 12:56:24;;;;;;;3.85;1.25;;;;;;;;;;4967145;28;20066;-49
2023/09/23 12:59:18;;;;;;;5.00;1.73;;;;;;;;;;4970527;28;20065;-50
2023/09/23 13:02:05;;;;;;;4.75;1.80;;;;;;;;;;4977747;28;20061;-52
2023/09/23 13:05:00;;;;;;;3.80;1.70;;;;;;;;;;4974309;28;20085;-49
2023/09/23 13:07:43;;;;;;;3.05;1.55;;;;;;;;;;4978310;28;20062;-61
2023/09/23 13:10:16;;;;;;;7.32;2.00;;;;;;;;;;4969189;28;20050;-58
2023/09/23 13:13:03;;;;;;;4.15;1.67;;;;;;;;;;4983698;28;20097;-58
2023/09/23 13:15:58;;;;;;;3.25;1.20;;;;;;;;;;4984315;28;20066;-58
2023/09/23 13:18:25;;;;;;;4.35;1.50;;;;;;;;;;4975912;28;20068;-58
2023/09/23 13:21:32;;;;;;;2.88;1.42;;;;;;;;;;4977329;28;20156;-58
2023/09/23 13:24:28;;;;;;;4.43;1.70;;;;;;;;;;4978799;28;20078;-59
2023/09/23 13:27:23;;;;;;;2.10;1.60;;;;;;;;;;4979549;28;20061;-61
2023/09/23 13:30:10;;;;;;;4.93;1.55;;;;;;;;;;4981260;28;22033;-60
2023/09/23 13:33:08;;;;;;;4.70;1.55;;;;;;;;;;4971513;28;20078;-59
2023/09/23 13:35:52;;;;;;;4.25;1.35;;;;;;;;;;4970934;28;20066;-60
2023/09/23 13:38:46;;;;;;;4.20;1.50;;;;;;;;;;4976994;28;21379;-59
2023/09/23 13:41:32;;;;;;;5.80;1.77;;;;;;;;;;4969398;28;20094;-59
2023/09/23 13:44:26;;;;;;;6.25;1.73;;;;;;;;;;4975926;28;20054;-61
2023/09/23 14:21:27;;;;;;;5.15;1.48;;;;;;;;;;5811578;23;8447795;-61
2023/09/23 14:24:01;;;;;;;3.17;1.27;;;;;;;;;;6098954;23;20085;-60
2023/09/23 14:26:55;;;;;;;6.68;1.52;;;;;;;;;;6122215;23;20030;-59
2023/09/23 14:29:42;;;;;;;4.28;1.83;;;;;;;;;;6108835;23;20028;-60
2023/09/23 14:32:38;;;;;;;5.18;1.75;;;;;;;;;;6122762;23;20040;-61
2023/09/23 14:35:24;;;;;;;5.07;1.70;;;;;;;;;;6093804;23;20022;-60
2023/09/23 14:38:19;;;;;;;5.90;1.65;;;;;;;;;;6093557;23;20033;-58
2023/09/23 14:41:08;;;;;;;4.45;1.60;;;;;;;;;;6094835;23;20098;-64
2023/09/23 14:44:00;;;;;;;4.07;1.65;;;;;;;;;;6093430;23;20073;-62
2023/09/23 14:46:47;;;;;;;12.93;1.33;;;;;;;;;;6092967;23;20022;-62
2023/09/23 14:49:41;;;;;;;2.45;1.15;;;;;;;;;;6093580;23;20061;-62
2023/09/23 14:52:28;;;;;;;4.15;1.63;;;;;;;;;;6092386;23;20033;-62
2023/09/23 14:55:22;;;;;;;2.65;1.00;;;;;;;;;;6090994;23;20026;-62
2023/09/23 14:58:10;;;;;;;5.45;1.35;;;;;;;;;;6077082;23;20386;-63
2023/09/23 15:01:06;;;;;;;3.30;1.23;;;;;;;;;;6076648;23;20026;-47
2023/09/23 15:03:50;;;;;;;6.38;1.50;;;;;;;;;;6083617;23;20081;-50
2023/09/23 15:06:44;;;;;;;5.20;1.60;;;;;;;;;;6083353;23;20027;-48
2023/09/23 15:09:32;;;;;;;4.72;1.42;;;;;;;;;;6079935;23;20053;-53
2023/09/23 15:12:26;;;;;;;6.32;1.83;;;;;;;;;;6080210;23;20109;-48
2023/09/23 15:15:20;;;;;;;5.43;1.60;;;;;;;;;;6086089;23;20023;-51
2023/09/23 15:18:07;;;;;;;2.17;1.08;;;;;;;;;;6084991;23;20022;-47
2023/09/23 15:21:03;;;;;;;4.53;1.55;;;;;;;;;;6081231;23;20078;-60
2023/09/23 15:23:56;;;;;;;5.07;1.60;;;;;;;;;;6083852;23;20121;-60
2023/09/23 15:26:43;;;;;;;5.90;1.02;;;;;;;;;;6086585;23;20031;-61
2023/09/23 15:29:37;;;;;;;5.90;1.33;;;;;;;;;;6082427;23;20030;-60
2023/09/23 15:32:24;;;;;;;4.65;1.27;;;;;;;;;;6085153;23;20030;-60
2023/09/23 15:35:18;;;;;;;4.40;1.40;;;;;;;;;;6084551;23;20075;-61
2023/09/23 15:38:05;;;;;;;3.63;1.27;;;;;;;;;;6084933;23;20564;-62
2023/09/23 15:40:59;;;;;;;3.90;1.25;;;;;;;;;;6078944;23;20027;-63
2023/09/23 15:43:46;;;;;;;4.53;1.30;;;;;;;;;;6083452;23;20436;-64
2023/09/23 15:46:40;;;;;;;6.50;1.35;;;;;;;;;;6083776;23;20522;-62
2023/09/23 15:49:34;;;;;;;8.65;1.98;;;;;;;;;;6083867;23;20409;-62
2023/09/23 15:52:21;;;;;;;6.35;1.92;;;;;;;;;;6084734;23;20026;-62
2023/09/23 15:55:15;;;;;;;5.85;1.65;;;;;;;;;;6085398;23;20077;-52
2023/09/23 15:58:02;;;;;;;4.47;1.38;;;;;;;;;;6082915;23;20042;-46
2023/09/23 16:00:55;;;;;;;5.32;1.35;;;;;;;;;;6085095;23;20026;-48
2023/09/23 16:03:50;;;;;;;4.07;1.55;;;;;;;;;;6087220;23;20432;-47
2023/09/23 16:06:44;;;;;;;4.47;1.35;;;;;;;;;;6083756;23;20030;-49
2023/09/23 16:09:32;;;;;;;5.22;1.45;;;;;;;;;;6086732;23;20082;-49
2023/09/23 16:12:25;;;;;;;6.25;1.60;;;;;;;;;;6083361;23;20026;-60
2023/09/23 16:15:12;;;;;;;6.80;1.30;;;;;;;;;;6085042;23;20023;-58
2023/09/23 16:18:06;;;;;;;5.07;1.52;;;;;;;;;;6084880;23;20540;-59
2023/09/23 16:20:53;;;;;;;4.47;1.40;;;;;;;;;;6082806;23;20269;-59
2023/09/23 16:23:53;;;;;;;6.57;1.73;;;;;;;;;;6027276;23;20031;-61
2023/09/23 16:26:47;;;;;;;8.43;1.63;;;;;;;;;;6027713;23;20091;-59
2023/09/23 16:29:40;;;;;;;8.23;1.73;;;;;;;;;;6028831;23;20027;-62
2023/09/23 16:32:28;;;;;;;8.85;1.60;;;;;;;;;;6027235;23;20083;-58
2023/09/23 16:35:22;;;;;;;9.15;1.50;;;;;;;;;;6023164;23;20090;-61
2023/09/23 16:38:10;;;;;;;6.65;1.73;;;;;;;;;;6024621;23;20119;-59
2023/09/23 16:41:02;;;;;;;5.15;1.65;;;;;;;;;;6026444;23;20027;-59
2023/09/23 16:44:02;;;;;;;9.38;1.65;;;;;;;;;;6022539;23;20100;-59
2023/09/23 16:46:57;;;;;;;8.00;1.50;;;;;;;;;;6021212;23;20126;-59
2023/09/23 16:49:43;;;;;;;5.97;1.83;;;;;;;;;;6027208;23;20031;-59
2023/09/23 16:52:37;;;;;;;10.20;1.98;;;;;;;;;;6026833;23;20031;-49
2023/09/23 16:55:24;;;;;;;6.38;1.80;;;;;;;;;;6027206;23;20597;-49
2023/09/23 16:58:17;;;;;;;13.90;2.00;;;;;;;;;;6028426;23;20415;-52
2023/09/23 17:01:05;;;;;;;11.38;2.08;;;;;;;;;;6027627;23;20027;-49
2023/09/23 17:03:58;;;;;;;7.30;1.58;;;;;;;;;;6026437;23;20027;-49
2023/09/23 17:06:46;;;;;;;6.57;1.70;;;;;;;;;;6023361;23;20031;-61
2023/09/23 17:09:43;;;;;;;8.95;2.28;;;;;;;;;;6027016;23;20027;-64
2023/09/23 17:12:30;;;;;;;7.47;2.03;;;;;;;;;;6026212;23;20087;-65
2023/09/23 17:15:24;;;;;;;8.68;2.00;;;;;;;;;;6025158;23;20023;-65
2023/09/23 17:18:01;;;;;;;10.13;2.25;;;;;;;;;;6024926;23;20023;-65
2023/09/23 17:20:45;;;;;;;6.72;1.83;;;;;;;;;;6027648;23;20429;-65
2023/09/23 17:23:45;;;;;;;6.95;2.22;;;;;;;;;;6086574;23;20026;-47
2023/09/23 17:26:31;;;;;;;6.10;2.00;;;;;;;;;;6081212;23;20026;-62